sensor_id;sensor_type;location;lat;lon;timestamp;P1;durP1;ratioP1;P2;durP2;ratioP2
71790;SDS011;59638;52.126;5.434;2022-07-23T00:00:56;1.17;;;0.43;;
71790;SDS011;59638;52.126;5.434;2022-07-23T00:03:22;1.10;;;0.32;;
71790;SDS011;59638;52.126;5.434;2022-07-23T00:05:49;1.40;;;0.55;;
71790;SDS011;59638;52.126;5.434;2022-07-23T00:08:16;2.95;;;0.38;;
71790;SDS011;59638;52.126;5.434;2022-07-23T00:10:42;3.22;;;0.40;;
71790;SDS011;59638;52.126;5.434;2022-07-23T00:13:09;2.00;;;0.40;;
71790;SDS011;59638;52.126;5.434;2022-07-23T00:15:35;0.95;;;0.45;;
71790;SDS011;59638;52.126;5.434;2022-07-23T00:18:02;1.77;;;0.65;;
71790;SDS011;59638;52.126;5.434;2022-07-23T00:20:28;1.00;;;0.30;;
71790;SDS011;59638;52.126;5.434;2022-07-23T00:22:55;1.58;;;0.77;;
71790;SDS011;59638;52.126;5.434;2022-07-23T00:25:22;1.50;;;0.50;;
71790;SDS011;59638;52.126;5.434;2022-07-23T00:27:56;1.83;;;0.63;;
71790;SDS011;59638;52.126;5.434;2022-07-23T00:30:23;1.52;;;0.50;;
71790;SDS011;59638;52.126;5.434;2022-07-23T00:32:54;3.55;;;0.43;;
71790;SDS011;59638;52.126;5.434;2022-07-23T00:35:24;2.17;;;0.65;;
71790;SDS011;59638;52.126;5.434;2022-07-23T00:37:52;4.63;;;1.13;;
71790;SDS011;59638;52.126;5.434;2022-07-23T00:40:19;1.67;;;1.02;;
71790;SDS011;59638;52.126;5.434;2022-07-23T00:42:46;1.80;;;0.85;;
71790;SDS011;59638;52.126;5.434;2022-07-23T00:45:12;2.38;;;0.85;;
71790;SDS011;59638;52.126;5.434;2022-07-23T00:47:39;1.92;;;0.90;;
71790;SDS011;59638;52.126;5.434;2022-07-23T00:50:06;2.07;;;1.70;;
71790;SDS011;59638;52.126;5.434;2022-07-23T00:52:35;2.35;;;1.90;;
71790;SDS011;59638;52.126;5.434;2022-07-23T00:55:03;2.42;;;1.20;;
71790;SDS011;59638;52.126;5.434;2022-07-23T00:57:30;2.38;;;1.10;;
71790;SDS011;59638;52.126;5.434;2022-07-23T00:59:57;3.22;;;1.35;;
71790;SDS011;59638;52.126;5.434;2022-07-23T01:02:26;2.67;;;1.10;;
71790;SDS011;59638;52.126;5.434;2022-07-23T01:04:53;2.90;;;1.15;;
71790;SDS011;59638;52.126;5.434;2022-07-23T01:07:20;2.65;;;1.45;;
71790;SDS011;59638;52.126;5.434;2022-07-23T01:09:47;2.80;;;1.60;;
71790;SDS011;59638;52.126;5.434;2022-07-23T01:12:15;3.35;;;1.48;;
71790;SDS011;59638;52.126;5.434;2022-07-23T01:14:42;3.20;;;1.60;;
71790;SDS011;59638;52.126;5.434;2022-07-23T01:17:08;2.20;;;1.45;;
71790;SDS011;59638;52.126;5.434;2022-07-23T01:19:34;3.05;;;1.58;;
71790;SDS011;59638;52.126;5.434;2022-07-23T01:22:02;3.33;;;1.52;;
71790;SDS011;59638;52.126;5.434;2022-07-23T01:24:29;2.00;;;1.08;;
71790;SDS011;59638;52.126;5.434;2022-07-23T01:26:56;2.00;;;1.00;;
71790;SDS011;59638;52.126;5.434;2022-07-23T01:29:22;2.08;;;1.10;;
71790;SDS011;59638;52.126;5.434;2022-07-23T01:31:49;6.53;;;1.65;;
71790;SDS011;59638;52.126;5.434;2022-07-23T01:34:15;4.43;;;1.30;;
71790;SDS011;59638;52.126;5.434;2022-07-23T01:36:41;3.83;;;1.30;;
71790;SDS011;59638;52.126;5.434;2022-07-23T01:39:08;2.40;;;1.10;;
71790;SDS011;59638;52.126;5.434;2022-07-23T01:41:34;2.67;;;1.27;;
71790;SDS011;59638;52.126;5.434;2022-07-23T01:44:01;3.55;;;1.20;;
71790;SDS011;59638;52.126;5.434;2022-07-23T01:46:27;4.57;;;1.63;;
71790;SDS011;59638;52.126;5.434;2022-07-23T01:48:54;2.05;;;1.60;;
71790;SDS011;59638;52.126;5.434;2022-07-23T01:51:20;1.73;;;0.93;;
71790;SDS011;59638;52.126;5.434;2022-07-23T01:53:47;4.00;;;1.10;;
71790;SDS011;59638;52.126;5.434;2022-07-23T01:56:13;2.72;;;1.00;;
71790;SDS011;59638;52.126;5.434;2022-07-23T01:58:41;1.73;;;1.10;;
71790;SDS011;59638;52.126;5.434;2022-07-23T02:01:07;2.47;;;1.30;;
71790;SDS011;59638;52.126;5.434;2022-07-23T02:03:34;1.67;;;0.93;;
71790;SDS011;59638;52.126;5.434;2022-07-23T02:06:00;3.63;;;1.05;;
71790;SDS011;59638;52.126;5.434;2022-07-23T02:08:27;2.45;;;0.95;;
71790;SDS011;59638;52.126;5.434;2022-07-23T02:10:53;5.30;;;1.55;;
71790;SDS011;59638;52.126;5.434;2022-07-23T02:13:19;2.72;;;1.42;;
71790;SDS011;59638;52.126;5.434;2022-07-23T02:15:46;3.60;;;1.30;;
71790;SDS011;59638;52.126;5.434;2022-07-23T02:18:13;2.13;;;1.27;;
71790;SDS011;59638;52.126;5.434;2022-07-23T02:20:40;3.50;;;1.45;;
71790;SDS011;59638;52.126;5.434;2022-07-23T02:23:07;2.33;;;1.35;;
71790;SDS011;59638;52.126;5.434;2022-07-23T02:25:34;3.50;;;1.13;;
71790;SDS011;59638;52.126;5.434;2022-07-23T02:28:00;2.73;;;0.80;;
71790;SDS011;59638;52.126;5.434;2022-07-23T02:30:27;1.80;;;1.02;;
71790;SDS011;59638;52.126;5.434;2022-07-23T02:32:53;1.85;;;1.00;;
71790;SDS011;59638;52.126;5.434;2022-07-23T02:35:20;1.55;;;1.00;;
71790;SDS011;59638;52.126;5.434;2022-07-23T02:37:47;2.72;;;1.17;;
71790;SDS011;59638;52.126;5.434;2022-07-23T02:40:16;1.73;;;0.97;;
71790;SDS011;59638;52.126;5.434;2022-07-23T02:42:42;1.85;;;0.80;;
71790;SDS011;59638;52.126;5.434;2022-07-23T02:45:09;1.75;;;0.70;;
71790;SDS011;59638;52.126;5.434;2022-07-23T02:47:35;3.83;;;1.00;;
71790;SDS011;59638;52.126;5.434;2022-07-23T02:50:02;2.10;;;1.52;;
71790;SDS011;59638;52.126;5.434;2022-07-23T02:52:31;2.13;;;1.10;;
71790;SDS011;59638;52.126;5.434;2022-07-23T02:54:57;1.52;;;1.02;;
71790;SDS011;59638;52.126;5.434;2022-07-23T02:57:24;3.67;;;0.80;;
71790;SDS011;59638;52.126;5.434;2022-07-23T02:59:50;1.60;;;1.20;;
71790;SDS011;59638;52.126;5.434;2022-07-23T03:02:17;1.40;;;0.70;;
71790;SDS011;59638;52.126;5.434;2022-07-23T03:04:43;1.10;;;0.70;;
71790;SDS011;59638;52.126;5.434;2022-07-23T03:07:10;1.10;;;0.55;;
71790;SDS011;59638;52.126;5.434;2022-07-23T03:09:36;1.55;;;0.65;;
71790;SDS011;59638;52.126;5.434;2022-07-23T03:12:03;1.10;;;0.40;;
71790;SDS011;59638;52.126;5.434;2022-07-23T03:14:32;1.58;;;0.70;;
71790;SDS011;59638;52.126;5.434;2022-07-23T03:16:59;2.70;;;0.60;;
71790;SDS011;59638;52.126;5.434;2022-07-23T03:19:26;6.68;;;0.95;;
71790;SDS011;59638;52.126;5.434;2022-07-23T03:21:52;1.80;;;0.70;;
71790;SDS011;59638;52.126;5.434;2022-07-23T03:24:19;1.65;;;0.80;;
71790;SDS011;59638;52.126;5.434;2022-07-23T03:26:45;1.90;;;0.70;;
71790;SDS011;59638;52.126;5.434;2022-07-23T03:29:11;2.10;;;0.90;;
71790;SDS011;59638;52.126;5.434;2022-07-23T03:31:38;3.67;;;0.80;;
71790;SDS011;59638;52.126;5.434;2022-07-23T03:34:04;1.25;;;0.60;;
71790;SDS011;59638;52.126;5.434;2022-07-23T03:36:31;1.25;;;0.38;;
71790;SDS011;59638;52.126;5.434;2022-07-23T03:38:57;2.85;;;0.73;;
71790;SDS011;59638;52.126;5.434;2022-07-23T03:41:26;1.43;;;0.50;;
71790;SDS011;59638;52.126;5.434;2022-07-23T03:43:53;0.85;;;0.30;;
71790;SDS011;59638;52.126;5.434;2022-07-23T03:46:19;2.33;;;0.60;;
71790;SDS011;59638;52.126;5.434;2022-07-23T03:48:46;4.57;;;0.60;;
71790;SDS011;59638;52.126;5.434;2022-07-23T03:51:12;1.75;;;0.85;;
71790;SDS011;59638;52.126;5.434;2022-07-23T03:53:38;1.00;;;0.50;;
71790;SDS011;59638;52.126;5.434;2022-07-23T03:56:05;1.83;;;0.70;;
71790;SDS011;59638;52.126;5.434;2022-07-23T03:58:31;4.13;;;0.52;;
71790;SDS011;59638;52.126;5.434;2022-07-23T04:00:58;3.92;;;0.77;;
71790;SDS011;59638;52.126;5.434;2022-07-23T04:03:24;1.55;;;0.70;;
71790;SDS011;59638;52.126;5.434;2022-07-23T04:05:51;1.83;;;0.50;;
71790;SDS011;59638;52.126;5.434;2022-07-23T04:08:17;1.67;;;0.80;;
71790;SDS011;59638;52.126;5.434;2022-07-23T04:10:44;1.63;;;0.80;;
71790;SDS011;59638;52.126;5.434;2022-07-23T04:13:10;3.20;;;1.02;;
71790;SDS011;59638;52.126;5.434;2022-07-23T04:15:36;2.53;;;0.60;;
71790;SDS011;59638;52.126;5.434;2022-07-23T04:18:04;3.23;;;1.07;;
71790;SDS011;59638;52.126;5.434;2022-07-23T04:20:30;1.65;;;1.20;;
71790;SDS011;59638;52.126;5.434;2022-07-23T04:23:00;1.90;;;0.93;;
71790;SDS011;59638;52.126;5.434;2022-07-23T04:25:26;2.28;;;1.00;;
71790;SDS011;59638;52.126;5.434;2022-07-23T04:27:53;2.10;;;1.08;;
71790;SDS011;59638;52.126;5.434;2022-07-23T04:30:19;1.90;;;0.80;;
71790;SDS011;59638;52.126;5.434;2022-07-23T04:32:46;2.30;;;0.65;;
71790;SDS011;59638;52.126;5.434;2022-07-23T04:35:12;1.92;;;0.52;;
71790;SDS011;59638;52.126;5.434;2022-07-23T04:37:39;2.00;;;0.77;;
71790;SDS011;59638;52.126;5.434;2022-07-23T04:40:05;3.03;;;0.65;;
71790;SDS011;59638;52.126;5.434;2022-07-23T04:42:32;5.50;;;0.60;;
71790;SDS011;59638;52.126;5.434;2022-07-23T04:44:58;1.65;;;0.82;;
71790;SDS011;59638;52.126;5.434;2022-07-23T04:47:25;1.58;;;0.98;;
71790;SDS011;59638;52.126;5.434;2022-07-23T04:49:53;1.83;;;1.02;;
71790;SDS011;59638;52.126;5.434;2022-07-23T04:52:20;2.20;;;0.75;;
71790;SDS011;59638;52.126;5.434;2022-07-23T04:54:46;3.47;;;1.07;;
71790;SDS011;59638;52.126;5.434;2022-07-23T04:57:12;2.78;;;0.90;;
71790;SDS011;59638;52.126;5.434;2022-07-23T04:59:39;1.65;;;0.98;;
71790;SDS011;59638;52.126;5.434;2022-07-23T05:02:05;1.35;;;0.80;;
71790;SDS011;59638;52.126;5.434;2022-07-23T05:04:32;0.90;;;0.40;;
71790;SDS011;59638;52.126;5.434;2022-07-23T05:06:59;1.00;;;0.50;;
71790;SDS011;59638;52.126;5.434;2022-07-23T05:09:25;1.65;;;0.50;;
71790;SDS011;59638;52.126;5.434;2022-07-23T05:11:52;3.30;;;0.60;;
71790;SDS011;59638;52.126;5.434;2022-07-23T05:14:18;2.72;;;0.95;;
71790;SDS011;59638;52.126;5.434;2022-07-23T05:16:45;1.58;;;0.82;;
71790;SDS011;59638;52.126;5.434;2022-07-23T05:19:11;1.93;;;0.70;;
71790;SDS011;59638;52.126;5.434;2022-07-23T05:21:38;1.48;;;0.88;;
71790;SDS011;59638;52.126;5.434;2022-07-23T05:24:05;2.15;;;0.80;;
71790;SDS011;59638;52.126;5.434;2022-07-23T05:26:32;2.35;;;0.90;;
71790;SDS011;59638;52.126;5.434;2022-07-23T05:28:58;1.60;;;1.10;;
71790;SDS011;59638;52.126;5.434;2022-07-23T05:31:24;1.70;;;1.17;;
71790;SDS011;59638;52.126;5.434;2022-07-23T05:33:51;5.63;;;1.30;;
71790;SDS011;59638;52.126;5.434;2022-07-23T05:36:17;5.13;;;1.33;;
71790;SDS011;59638;52.126;5.434;2022-07-23T05:38:44;2.28;;;1.60;;
71790;SDS011;59638;52.126;5.434;2022-07-23T05:41:10;2.08;;;1.35;;
71790;SDS011;59638;52.126;5.434;2022-07-23T05:43:37;1.87;;;1.20;;
71790;SDS011;59638;52.126;5.434;2022-07-23T05:46:03;2.10;;;1.80;;
71790;SDS011;59638;52.126;5.434;2022-07-23T05:48:29;3.60;;;2.22;;
71790;SDS011;59638;52.126;5.434;2022-07-23T05:50:56;4.78;;;1.83;;
71790;SDS011;59638;52.126;5.434;2022-07-23T05:53:22;3.40;;;2.10;;
71790;SDS011;59638;52.126;5.434;2022-07-23T05:55:49;3.97;;;1.70;;
71790;SDS011;59638;52.126;5.434;2022-07-23T05:58:15;2.40;;;1.70;;
71790;SDS011;59638;52.126;5.434;2022-07-23T06:00:42;2.45;;;1.48;;
71790;SDS011;59638;52.126;5.434;2022-07-23T06:03:08;2.92;;;1.48;;
71790;SDS011;59638;52.126;5.434;2022-07-23T06:05:35;4.50;;;2.40;;
71790;SDS011;59638;52.126;5.434;2022-07-23T06:08:01;2.77;;;1.57;;
71790;SDS011;59638;52.126;5.434;2022-07-23T06:10:27;3.47;;;1.15;;
71790;SDS011;59638;52.126;5.434;2022-07-23T06:12:54;4.65;;;1.65;;
71790;SDS011;59638;52.126;5.434;2022-07-23T06:15:27;11.00;;;1.45;;
71790;SDS011;59638;52.126;5.434;2022-07-23T06:17:54;2.20;;;1.30;;
71790;SDS011;59638;52.126;5.434;2022-07-23T06:20:20;5.60;;;1.07;;
71790;SDS011;59638;52.126;5.434;2022-07-23T06:22:47;3.55;;;1.20;;
71790;SDS011;59638;52.126;5.434;2022-07-23T06:25:13;2.20;;;1.23;;
71790;SDS011;59638;52.126;5.434;2022-07-23T06:27:45;1.88;;;1.02;;
71790;SDS011;59638;52.126;5.434;2022-07-23T06:30:11;3.50;;;1.20;;
71790;SDS011;59638;52.126;5.434;2022-07-23T06:32:39;3.27;;;0.80;;
71790;SDS011;59638;52.126;5.434;2022-07-23T06:35:05;4.40;;;0.77;;
71790;SDS011;59638;52.126;5.434;2022-07-23T06:37:32;3.83;;;0.80;;
71790;SDS011;59638;52.126;5.434;2022-07-23T06:39:58;2.45;;;0.60;;
71790;SDS011;59638;52.126;5.434;2022-07-23T06:42:25;3.00;;;0.65;;
71790;SDS011;59638;52.126;5.434;2022-07-23T06:44:51;3.73;;;0.50;;
71790;SDS011;59638;52.126;5.434;2022-07-23T06:47:17;1.90;;;0.75;;
71790;SDS011;59638;52.126;5.434;2022-07-23T06:49:44;3.65;;;0.65;;
71790;SDS011;59638;52.126;5.434;2022-07-23T06:52:10;1.15;;;0.63;;
71790;SDS011;59638;52.126;5.434;2022-07-23T06:54:36;3.22;;;0.75;;
71790;SDS011;59638;52.126;5.434;2022-07-23T06:57:03;3.20;;;0.53;;
71790;SDS011;59638;52.126;5.434;2022-07-23T06:59:29;2.20;;;0.50;;
71790;SDS011;59638;52.126;5.434;2022-07-23T07:01:56;5.20;;;0.50;;
71790;SDS011;59638;52.126;5.434;2022-07-23T07:04:24;3.53;;;0.98;;
71790;SDS011;59638;52.126;5.434;2022-07-23T07:06:50;3.58;;;0.40;;
71790;SDS011;59638;52.126;5.434;2022-07-23T07:09:17;3.20;;;0.50;;
71790;SDS011;59638;52.126;5.434;2022-07-23T07:11:44;2.60;;;0.40;;
71790;SDS011;59638;52.126;5.434;2022-07-23T07:14:10;2.83;;;0.38;;
71790;SDS011;59638;52.126;5.434;2022-07-23T07:16:36;4.22;;;0.50;;
71790;SDS011;59638;52.126;5.434;2022-07-23T07:19:03;1.60;;;0.65;;
71790;SDS011;59638;52.126;5.434;2022-07-23T07:21:30;0.90;;;0.30;;
71790;SDS011;59638;52.126;5.434;2022-07-23T07:23:56;1.63;;;0.40;;
71790;SDS011;59638;52.126;5.434;2022-07-23T07:26:23;1.70;;;0.20;;
71790;SDS011;59638;52.126;5.434;2022-07-23T07:28:49;1.17;;;0.30;;
71790;SDS011;59638;52.126;5.434;2022-07-23T07:31:16;1.77;;;0.40;;
71790;SDS011;59638;52.126;5.434;2022-07-23T07:33:42;2.67;;;0.40;;
71790;SDS011;59638;52.126;5.434;2022-07-23T07:36:10;2.95;;;0.25;;
71790;SDS011;59638;52.126;5.434;2022-07-23T07:38:44;2.15;;;0.30;;
71790;SDS011;59638;52.126;5.434;2022-07-23T07:41:10;1.15;;;0.50;;
71790;SDS011;59638;52.126;5.434;2022-07-23T07:43:36;1.58;;;0.43;;
71790;SDS011;59638;52.126;5.434;2022-07-23T07:46:03;2.57;;;0.40;;
71790;SDS011;59638;52.126;5.434;2022-07-23T07:48:30;3.10;;;0.40;;
71790;SDS011;59638;52.126;5.434;2022-07-23T07:50:57;3.80;;;0.40;;
71790;SDS011;59638;52.126;5.434;2022-07-23T07:53:24;1.73;;;0.50;;
71790;SDS011;59638;52.126;5.434;2022-07-23T07:55:51;2.95;;;0.50;;
71790;SDS011;59638;52.126;5.434;2022-07-23T07:58:17;2.07;;;0.30;;
71790;SDS011;59638;52.126;5.434;2022-07-23T08:00:44;3.38;;;0.73;;
71790;SDS011;59638;52.126;5.434;2022-07-23T08:03:10;1.70;;;0.50;;
71790;SDS011;59638;52.126;5.434;2022-07-23T08:05:37;1.20;;;0.32;;
71790;SDS011;59638;52.126;5.434;2022-07-23T08:08:04;1.42;;;0.50;;
71790;SDS011;59638;52.126;5.434;2022-07-23T08:10:30;1.07;;;0.40;;
71790;SDS011;59638;52.126;5.434;2022-07-23T08:12:58;1.30;;;0.50;;
71790;SDS011;59638;52.126;5.434;2022-07-23T08:15:27;1.15;;;0.40;;
71790;SDS011;59638;52.126;5.434;2022-07-23T08:17:55;1.80;;;0.43;;
71790;SDS011;59638;52.126;5.434;2022-07-23T08:20:22;2.53;;;0.40;;
71790;SDS011;59638;52.126;5.434;2022-07-23T08:25:22;2.92;;;0.45;;
71790;SDS011;59638;52.126;5.434;2022-07-23T08:27:53;2.50;;;0.45;;
71790;SDS011;59638;52.126;5.434;2022-07-23T08:30:20;1.73;;;0.30;;
71790;SDS011;59638;52.126;5.434;2022-07-23T08:32:48;1.40;;;0.45;;
71790;SDS011;59638;52.126;5.434;2022-07-23T08:35:23;1.40;;;0.50;;
71790;SDS011;59638;52.126;5.434;2022-07-23T08:37:51;1.50;;;0.50;;
71790;SDS011;59638;52.126;5.434;2022-07-23T08:40:18;1.67;;;0.55;;
71790;SDS011;59638;52.126;5.434;2022-07-23T08:42:46;1.60;;;0.40;;
71790;SDS011;59638;52.126;5.434;2022-07-23T08:45:16;3.10;;;0.90;;
71790;SDS011;59638;52.126;5.434;2022-07-23T08:47:44;2.13;;;0.30;;
71790;SDS011;59638;52.126;5.434;2022-07-23T08:50:18;1.45;;;0.40;;
71790;SDS011;59638;52.126;5.434;2022-07-23T08:52:46;1.17;;;0.60;;
71790;SDS011;59638;52.126;5.434;2022-07-23T08:55:19;1.13;;;0.40;;
71790;SDS011;59638;52.126;5.434;2022-07-23T08:57:48;1.42;;;0.60;;
71790;SDS011;59638;52.126;5.434;2022-07-23T09:00:17;1.50;;;0.83;;
71790;SDS011;59638;52.126;5.434;2022-07-23T09:02:44;1.40;;;0.40;;
71790;SDS011;59638;52.126;5.434;2022-07-23T09:05:12;0.90;;;0.70;;
71790;SDS011;59638;52.126;5.434;2022-07-23T09:10:45;1.15;;;0.30;;
71790;SDS011;59638;52.126;5.434;2022-07-23T09:16:06;2.45;;;0.40;;
71790;SDS011;59638;52.126;5.434;2022-07-23T09:18:53;1.15;;;0.45;;
71790;SDS011;59638;52.126;5.434;2022-07-23T09:21:28;1.25;;;0.30;;
71790;SDS011;59638;52.126;5.434;2022-07-23T09:24:03;1.00;;;0.40;;
71790;SDS011;59638;52.126;5.434;2022-07-23T09:26:40;0.93;;;0.40;;
71790;SDS011;59638;52.126;5.434;2022-07-23T09:29:09;1.10;;;0.30;;
71790;SDS011;59638;52.126;5.434;2022-07-23T09:34:27;1.98;;;0.38;;
71790;SDS011;59638;52.126;5.434;2022-07-23T09:37:09;1.27;;;0.50;;
71790;SDS011;59638;52.126;5.434;2022-07-23T09:39:40;1.80;;;0.30;;
71790;SDS011;59638;52.126;5.434;2022-07-23T09:42:21;2.55;;;1.20;;
71790;SDS011;59638;52.126;5.434;2022-07-23T09:44:50;1.55;;;0.75;;
71790;SDS011;59638;52.126;5.434;2022-07-23T09:47:18;2.92;;;0.50;;
71790;SDS011;59638;52.126;5.434;2022-07-23T09:52:28;1.27;;;0.30;;
71790;SDS011;59638;52.126;5.434;2022-07-23T09:55:01;2.45;;;0.30;;
71790;SDS011;59638;52.126;5.434;2022-07-23T09:57:33;1.83;;;0.38;;
71790;SDS011;59638;52.126;5.434;2022-07-23T10:00:00;1.33;;;0.30;;
71790;SDS011;59638;52.126;5.434;2022-07-23T10:02:31;0.75;;;0.30;;
71790;SDS011;59638;52.126;5.434;2022-07-23T10:04:58;0.60;;;0.30;;
71790;SDS011;59638;52.126;5.434;2022-07-23T10:07:27;2.35;;;0.40;;
71790;SDS011;59638;52.126;5.434;2022-07-23T10:09:57;1.73;;;0.40;;
71790;SDS011;59638;52.126;5.434;2022-07-23T10:12:25;1.38;;;0.60;;
71790;SDS011;59638;52.126;5.434;2022-07-23T10:15:07;2.42;;;0.35;;
71790;SDS011;59638;52.126;5.434;2022-07-23T10:17:34;2.00;;;0.50;;
71790;SDS011;59638;52.126;5.434;2022-07-23T10:20:02;1.77;;;0.43;;
71790;SDS011;59638;52.126;5.434;2022-07-23T10:22:33;1.33;;;0.32;;
71790;SDS011;59638;52.126;5.434;2022-07-23T10:28:22;1.48;;;0.40;;
71790;SDS011;59638;52.126;5.434;2022-07-23T10:31:09;1.47;;;0.20;;
71790;SDS011;59638;52.126;5.434;2022-07-23T10:34:07;1.10;;;0.20;;
71790;SDS011;59638;52.126;5.434;2022-07-23T10:37:48;0.90;;;0.50;;
71790;SDS011;59638;52.126;5.434;2022-07-23T10:42:40;1.20;;;0.77;;
71790;SDS011;59638;52.126;5.434;2022-07-23T10:47:55;1.45;;;0.30;;
71790;SDS011;59638;52.126;5.434;2022-07-23T10:50:24;2.22;;;0.40;;
71790;SDS011;59638;52.126;5.434;2022-07-23T10:57:58;1.23;;;0.40;;
71790;SDS011;59638;52.126;5.434;2022-07-23T11:00:26;0.90;;;0.40;;
71790;SDS011;59638;52.126;5.434;2022-07-23T11:03:02;4.40;;;0.50;;
71790;SDS011;59638;52.126;5.434;2022-07-23T11:10:45;1.53;;;0.40;;
71790;SDS011;59638;52.126;5.434;2022-07-23T11:13:35;2.08;;;0.52;;
71790;SDS011;59638;52.126;5.434;2022-07-23T11:16:05;1.00;;;0.50;;
71790;SDS011;59638;52.126;5.434;2022-07-23T11:32:20;1.50;;;0.77;;
71790;SDS011;59638;52.126;5.434;2022-07-23T11:34:50;1.60;;;0.93;;
71790;SDS011;59638;52.126;5.434;2022-07-23T11:37:53;1.80;;;0.60;;
71790;SDS011;59638;52.126;5.434;2022-07-23T11:40:13;2.05;;;0.73;;
71790;SDS011;59638;52.126;5.434;2022-07-23T11:43:02;3.13;;;0.52;;
71790;SDS011;59638;52.126;5.434;2022-07-23T11:45:35;1.23;;;0.70;;
71790;SDS011;59638;52.126;5.434;2022-07-23T11:48:04;1.48;;;0.70;;
71790;SDS011;59638;52.126;5.434;2022-07-23T11:50:32;1.20;;;0.70;;
71790;SDS011;59638;52.126;5.434;2022-07-23T11:52:59;0.80;;;0.45;;
71790;SDS011;59638;52.126;5.434;2022-07-23T11:55:26;1.00;;;0.80;;
71790;SDS011;59638;52.126;5.434;2022-07-23T11:57:55;2.33;;;0.75;;
71790;SDS011;59638;52.126;5.434;2022-07-23T12:00:23;2.08;;;0.80;;
71790;SDS011;59638;52.126;5.434;2022-07-23T12:02:55;0.83;;;0.60;;
71790;SDS011;59638;52.126;5.434;2022-07-23T12:05:32;1.48;;;0.80;;
71790;SDS011;59638;52.126;5.434;2022-07-23T12:08:02;1.45;;;0.80;;
71790;SDS011;59638;52.126;5.434;2022-07-23T12:10:37;2.22;;;0.65;;
71790;SDS011;59638;52.126;5.434;2022-07-23T12:13:08;1.27;;;0.70;;
71790;SDS011;59638;52.126;5.434;2022-07-23T12:15:38;1.40;;;1.00;;
71790;SDS011;59638;52.126;5.434;2022-07-23T12:18:10;1.40;;;0.65;;
71790;SDS011;59638;52.126;5.434;2022-07-23T12:20:42;1.52;;;0.70;;
71790;SDS011;59638;52.126;5.434;2022-07-23T12:23:11;2.38;;;0.60;;
71790;SDS011;59638;52.126;5.434;2022-07-23T12:25:46;3.25;;;0.63;;
71790;SDS011;59638;52.126;5.434;2022-07-23T12:30:45;2.33;;;0.90;;
71790;SDS011;59638;52.126;5.434;2022-07-23T12:33:14;1.52;;;0.60;;
71790;SDS011;59638;52.126;5.434;2022-07-23T12:35:52;1.20;;;0.60;;
71790;SDS011;59638;52.126;5.434;2022-07-23T12:38:21;1.85;;;0.60;;
71790;SDS011;59638;52.126;5.434;2022-07-23T12:40:59;2.00;;;0.63;;
71790;SDS011;59638;52.126;5.434;2022-07-23T12:43:29;2.78;;;0.60;;
71790;SDS011;59638;52.126;5.434;2022-07-23T12:46:07;1.67;;;0.70;;
71790;SDS011;59638;52.126;5.434;2022-07-23T12:51:07;1.00;;;0.63;;
71790;SDS011;59638;52.126;5.434;2022-07-23T12:53:51;0.97;;;0.50;;
71790;SDS011;59638;52.126;5.434;2022-07-23T12:56:30;1.17;;;0.50;;
71790;SDS011;59638;52.126;5.434;2022-07-23T13:01:36;3.17;;;0.50;;
71790;SDS011;59638;52.126;5.434;2022-07-23T13:04:17;3.28;;;0.82;;
71790;SDS011;59638;52.126;5.434;2022-07-23T13:06:53;2.37;;;0.50;;
71790;SDS011;59638;52.126;5.434;2022-07-23T13:09:26;2.75;;;0.50;;
71790;SDS011;59638;52.126;5.434;2022-07-23T13:11:58;2.28;;;0.75;;
71790;SDS011;59638;52.126;5.434;2022-07-23T13:14:25;3.53;;;0.30;;
71790;SDS011;59638;52.126;5.434;2022-07-23T13:16:53;0.85;;;0.40;;
71790;SDS011;59638;52.126;5.434;2022-07-23T13:19:22;4.00;;;0.60;;
71790;SDS011;59638;52.126;5.434;2022-07-23T13:21:50;1.38;;;0.77;;
71790;SDS011;59638;52.126;5.434;2022-07-23T13:24:17;1.60;;;0.55;;
71790;SDS011;59638;52.126;5.434;2022-07-23T13:26:45;0.82;;;0.40;;
71790;SDS011;59638;52.126;5.434;2022-07-23T13:29:13;1.05;;;0.50;;
71790;SDS011;59638;52.126;5.434;2022-07-23T13:31:42;1.57;;;0.50;;
71790;SDS011;59638;52.126;5.434;2022-07-23T13:34:09;1.60;;;0.50;;
71790;SDS011;59638;52.126;5.434;2022-07-23T13:36:36;1.10;;;0.47;;
71790;SDS011;59638;52.126;5.434;2022-07-23T13:39:03;2.17;;;0.50;;
71790;SDS011;59638;52.126;5.434;2022-07-23T13:41:33;1.67;;;0.40;;
71790;SDS011;59638;52.126;5.434;2022-07-23T13:44:01;1.87;;;0.40;;
71790;SDS011;59638;52.126;5.434;2022-07-23T13:46:28;2.38;;;0.70;;
71790;SDS011;59638;52.126;5.434;2022-07-23T13:48:54;1.52;;;0.70;;
71790;SDS011;59638;52.126;5.434;2022-07-23T13:51:21;2.63;;;0.45;;
71790;SDS011;59638;52.126;5.434;2022-07-23T13:53:51;1.23;;;0.60;;
71790;SDS011;59638;52.126;5.434;2022-07-23T13:56:17;1.00;;;0.40;;
71790;SDS011;59638;52.126;5.434;2022-07-23T13:58:43;2.17;;;0.68;;
71790;SDS011;59638;52.126;5.434;2022-07-23T14:01:10;1.00;;;0.50;;
71790;SDS011;59638;52.126;5.434;2022-07-23T14:03:37;1.75;;;0.60;;
71790;SDS011;59638;52.126;5.434;2022-07-23T14:06:05;1.40;;;0.60;;
71790;SDS011;59638;52.126;5.434;2022-07-23T14:08:41;1.40;;;0.60;;
71790;SDS011;59638;52.126;5.434;2022-07-23T14:11:09;1.20;;;0.60;;
71790;SDS011;59638;52.126;5.434;2022-07-23T14:13:36;1.10;;;0.45;;
71790;SDS011;59638;52.126;5.434;2022-07-23T14:16:02;0.98;;;0.30;;
71790;SDS011;59638;52.126;5.434;2022-07-23T14:18:29;2.40;;;0.80;;
71790;SDS011;59638;52.126;5.434;2022-07-23T14:20:59;1.20;;;0.40;;
71790;SDS011;59638;52.126;5.434;2022-07-23T14:23:25;1.73;;;0.40;;
71790;SDS011;59638;52.126;5.434;2022-07-23T14:25:52;1.05;;;0.57;;
71790;SDS011;59638;52.126;5.434;2022-07-23T14:28:19;1.23;;;0.63;;
71790;SDS011;59638;52.126;5.434;2022-07-23T14:30:46;1.58;;;0.65;;
71790;SDS011;59638;52.126;5.434;2022-07-23T14:33:12;0.90;;;0.50;;
71790;SDS011;59638;52.126;5.434;2022-07-23T14:35:41;1.48;;;0.50;;
71790;SDS011;59638;52.126;5.434;2022-07-23T14:38:07;1.25;;;0.40;;
71790;SDS011;59638;52.126;5.434;2022-07-23T14:40:34;1.05;;;0.30;;
71790;SDS011;59638;52.126;5.434;2022-07-23T14:43:00;2.70;;;0.50;;
71790;SDS011;59638;52.126;5.434;2022-07-23T14:45:27;3.60;;;1.00;;
71790;SDS011;59638;52.126;5.434;2022-07-23T14:47:56;1.02;;;0.43;;
71790;SDS011;59638;52.126;5.434;2022-07-23T14:50:23;3.25;;;0.60;;
71790;SDS011;59638;52.126;5.434;2022-07-23T14:52:50;1.23;;;0.50;;
71790;SDS011;59638;52.126;5.434;2022-07-23T14:55:17;1.60;;;0.50;;
71790;SDS011;59638;52.126;5.434;2022-07-23T14:57:44;1.00;;;0.33;;
71790;SDS011;59638;52.126;5.434;2022-07-23T15:00:11;1.73;;;0.60;;
71790;SDS011;59638;52.126;5.434;2022-07-23T15:02:40;2.03;;;0.68;;
71790;SDS011;59638;52.126;5.434;2022-07-23T15:05:07;1.40;;;0.45;;
71790;SDS011;59638;52.126;5.434;2022-07-23T15:07:33;1.73;;;0.50;;
71790;SDS011;59638;52.126;5.434;2022-07-23T15:10:00;3.50;;;0.60;;
71790;SDS011;59638;52.126;5.434;2022-07-23T15:12:28;1.73;;;0.40;;
71790;SDS011;59638;52.126;5.434;2022-07-23T15:14:54;1.33;;;0.40;;
71790;SDS011;59638;52.126;5.434;2022-07-23T15:17:21;1.75;;;0.52;;
71790;SDS011;59638;52.126;5.434;2022-07-23T15:19:47;1.77;;;0.60;;
71790;SDS011;59638;52.126;5.434;2022-07-23T15:22:15;2.37;;;0.40;;
71790;SDS011;59638;52.126;5.434;2022-07-23T15:24:41;2.00;;;0.55;;
71790;SDS011;59638;52.126;5.434;2022-07-23T15:27:08;1.25;;;0.90;;
71790;SDS011;59638;52.126;5.434;2022-07-23T15:29:34;0.90;;;0.65;;
71790;SDS011;59638;52.126;5.434;2022-07-23T15:32:02;1.42;;;0.60;;
71790;SDS011;59638;52.126;5.434;2022-07-23T15:34:29;1.77;;;0.50;;
71790;SDS011;59638;52.126;5.434;2022-07-23T15:36:56;1.00;;;0.60;;
71790;SDS011;59638;52.126;5.434;2022-07-23T15:39:25;1.85;;;0.60;;
71790;SDS011;59638;52.126;5.434;2022-07-23T15:41:54;1.20;;;0.50;;
71790;SDS011;59638;52.126;5.434;2022-07-23T15:44:20;1.20;;;0.60;;
71790;SDS011;59638;52.126;5.434;2022-07-23T15:47:09;1.80;;;0.40;;
71790;SDS011;59638;52.126;5.434;2022-07-23T15:49:38;1.38;;;0.70;;